createdAt,value
2022-11-12T00:00:35.532Z,5.77
2022-11-12T00:05:56.647Z,5.83
2022-11-12T00:11:17.739Z,5.73
2022-11-12T00:16:38.924Z,5.93
2022-11-12T00:21:59.925Z,6.17
2022-11-12T00:27:21.111Z,5.20
2022-11-12T00:32:42.019Z,5.73
2022-11-12T00:38:03.086Z,5.10
2022-11-12T00:43:25.442Z,5.43
2022-11-12T00:48:46.196Z,5.87
2022-11-12T00:54:07.658Z,4.90
2022-11-12T00:59:28.735Z,4.97
2022-11-12T01:04:49.972Z,5.30
2022-11-12T01:10:11.889Z,5.10
2022-11-12T01:15:32.871Z,4.50
2022-11-12T01:20:55.521Z,4.73
2022-11-12T01:26:20.777Z,4.90
2022-11-12T01:31:42.031Z,4.37
2022-11-12T01:37:03.062Z,4.50
2022-11-12T01:42:29.534Z,4.40
2022-11-12T01:47:52.210Z,4.60
2022-11-12T01:53:14.256Z,4.60
2022-11-12T01:58:37.516Z,4.43
2022-11-12T02:03:58.730Z,4.20
2022-11-12T02:09:20.041Z,4.37
2022-11-12T02:14:40.965Z,4.20
2022-11-12T02:20:02.295Z,4.20
2022-11-12T02:25:25.004Z,4.70
2022-11-12T02:30:48.834Z,4.67
2022-11-12T02:36:10.053Z,3.77
2022-11-12T02:41:31.246Z,4.00
2022-11-12T02:46:52.223Z,4.17
2022-11-12T02:52:13.382Z,4.17
2022-11-12T02:57:35.350Z,4.10
2022-11-12T03:02:59.401Z,3.77
2022-11-12T03:08:20.238Z,4.00
2022-11-12T03:13:41.605Z,3.47
2022-11-12T03:19:02.882Z,3.30
2022-11-12T03:24:24.009Z,3.50
2022-11-12T03:29:45.062Z,3.00
2022-11-12T03:35:06.503Z,3.00
2022-11-12T03:40:28.358Z,3.40
2022-11-12T03:45:49.276Z,3.23
2022-11-12T03:51:12.286Z,3.27
2022-11-12T03:56:32.992Z,3.00
2022-11-12T04:01:54.219Z,2.60
2022-11-12T04:07:33.831Z,3.23
2022-11-12T04:13:13.059Z,2.90
2022-11-12T04:18:52.809Z,3.10
2022-11-12T04:24:34.006Z,2.83
2022-11-12T04:30:13.889Z,3.00
2022-11-12T04:35:35.049Z,2.83
2022-11-12T04:41:14.417Z,2.70
2022-11-12T04:46:35.400Z,2.50
2022-11-12T04:52:05.512Z,2.40
2022-11-12T04:57:27.108Z,2.90
2022-11-12T05:02:50.526Z,2.40
2022-11-12T05:08:11.752Z,2.30
2022-11-12T05:13:32.783Z,2.60
2022-11-12T05:18:54.039Z,2.50
2022-11-12T05:24:33.966Z,2.60
2022-11-12T05:29:55.889Z,2.77
2022-11-12T05:35:16.997Z,2.70
2022-11-12T05:40:37.739Z,2.53
2022-11-12T05:45:59.000Z,2.80
2022-11-12T05:51:20.078Z,2.63
2022-11-12T05:56:41.328Z,2.47
2022-11-12T06:02:02.140Z,2.93
2022-11-12T06:07:23.347Z,2.67
2022-11-12T06:12:44.102Z,2.50
2022-11-12T06:18:05.077Z,2.47
2022-11-12T06:23:25.903Z,2.40
2022-11-12T06:28:48.050Z,2.40
2022-11-12T06:34:08.948Z,2.53
2022-11-12T06:39:29.672Z,2.57
2022-11-12T06:44:50.820Z,2.63
2022-11-12T06:50:11.852Z,2.50
2022-11-12T06:55:33.163Z,2.60
2022-11-12T07:00:53.917Z,2.73
2022-11-12T07:06:19.287Z,2.70
2022-11-12T07:11:40.238Z,2.67
2022-11-12T07:17:01.470Z,2.40
2022-11-12T07:22:22.264Z,2.70
2022-11-12T07:27:42.967Z,2.43
2022-11-12T07:33:03.986Z,2.90
2022-11-12T07:38:25.547Z,3.50
2022-11-12T07:43:48.464Z,2.80
2022-11-12T07:49:09.582Z,2.70
2022-11-12T07:54:30.553Z,3.10
2022-11-12T07:59:51.419Z,2.80
2022-11-12T08:05:16.512Z,2.80
2022-11-12T08:10:40.933Z,2.87
2022-11-12T08:16:02.263Z,3.40
2022-11-12T08:21:23.236Z,3.33
2022-11-12T08:26:44.333Z,5.70
2022-11-12T08:32:05.653Z,3.80
2022-11-12T08:37:26.931Z,3.10
2022-11-12T08:42:48.245Z,3.10
2022-11-12T08:48:13.840Z,2.87
2022-11-12T08:53:34.727Z,3.10
2022-11-12T08:58:56.037Z,3.03
2022-11-12T09:04:17.278Z,3.30
2022-11-12T09:09:38.273Z,2.97
2022-11-12T09:15:09.622Z,3.20
2022-11-12T09:20:41.189Z,3.20
2022-11-12T09:26:02.709Z,3.27
2022-11-12T09:31:25.764Z,3.60
2022-11-12T09:36:46.607Z,3.50
2022-11-12T09:42:16.016Z,2.97
2022-11-12T09:47:45.299Z,3.20
2022-11-12T10:42:57.347Z,4.50
2022-11-12T10:48:31.195Z,4.37
2022-11-12T10:53:55.107Z,4.67
2022-11-12T10:59:26.104Z,4.07
2022-11-12T11:04:51.109Z,3.17
2022-11-12T11:10:28.017Z,4.43
2022-11-12T11:16:00.085Z,4.67
2022-11-12T11:21:47.971Z,4.50
2022-11-12T11:27:19.888Z,4.27
2022-11-12T11:32:52.355Z,4.50
2022-11-12T11:38:25.566Z,4.40
2022-11-12T11:44:14.792Z,4.80
2022-11-12T11:50:01.905Z,4.87
2022-11-12T11:55:48.148Z,4.43
2022-11-12T12:01:20.619Z,4.40
2022-11-12T12:07:19.483Z,4.50
2022-11-12T12:13:05.451Z,4.50
2022-11-12T12:18:37.348Z,4.03
2022-11-12T12:24:18.032Z,4.20
2022-11-12T12:29:49.252Z,4.10
2022-11-12T12:35:38.738Z,4.27
2022-11-12T12:41:29.369Z,4.60
2022-11-12T12:46:57.451Z,5.13
2022-11-12T12:52:18.688Z,4.30
2022-11-12T12:57:40.803Z,4.07
2022-11-12T13:03:01.765Z,3.73
2022-11-12T13:08:27.225Z,3.63
2022-11-12T13:13:48.549Z,3.70
2022-11-12T13:19:09.735Z,3.63
2022-11-12T13:25:05.119Z,3.37
2022-11-12T13:30:25.860Z,3.80
2022-11-12T13:35:46.898Z,3.87
2022-11-12T13:41:43.795Z,3.90
2022-11-12T13:47:05.254Z,4.03
2022-11-12T13:52:26.935Z,3.40
2022-11-12T13:57:52.731Z,4.27
2022-11-12T14:03:18.937Z,4.10
2022-11-12T14:09:07.657Z,3.77
2022-11-12T14:15:04.349Z,4.30
2022-11-12T14:20:30.550Z,4.17
2022-11-12T14:25:53.785Z,4.33
2022-11-12T14:31:15.817Z,4.30
2022-11-12T14:36:38.764Z,4.43
2022-11-12T14:42:00.913Z,4.83
2022-11-12T14:47:23.178Z,4.40
2022-11-12T14:52:48.504Z,5.20
2022-11-12T14:58:17.579Z,5.10
2022-11-12T15:03:38.494Z,4.93
2022-11-12T15:09:00.152Z,4.60
2022-11-12T15:14:24.808Z,5.10
2022-11-12T15:19:45.817Z,5.00
2022-11-12T15:25:23.372Z,5.40
2022-11-12T15:31:08.016Z,5.23
2022-11-12T15:36:32.260Z,5.00
2022-11-12T15:42:05.939Z,4.97
2022-11-12T15:47:26.740Z,5.30
2022-11-12T15:52:47.964Z,5.67
2022-11-12T15:58:20.702Z,5.17
2022-11-12T16:03:41.577Z,5.20
2022-11-12T16:09:02.662Z,4.93
2022-11-12T16:14:25.114Z,5.40
2022-11-12T16:19:46.530Z,5.30
2022-11-12T16:25:08.091Z,5.80
2022-11-12T16:30:33.501Z,5.20
2022-11-12T16:35:54.296Z,5.37
2022-11-12T16:41:15.904Z,5.43
2022-11-12T16:46:42.031Z,7.00
2022-11-12T16:52:04.736Z,8.57
2022-11-12T16:57:26.568Z,8.07
2022-11-12T17:02:53.031Z,7.60
2022-11-12T17:08:14.813Z,5.93
2022-11-12T17:13:38.696Z,6.13
2022-11-12T17:19:01.730Z,5.77
2022-11-12T17:24:25.504Z,6.33
2022-11-12T17:29:46.484Z,6.97
2022-11-12T17:35:07.892Z,6.50
2022-11-12T17:40:28.968Z,6.10
2022-11-12T17:45:54.339Z,6.77
2022-11-12T17:51:17.968Z,6.07
2022-11-12T17:56:38.707Z,6.83
2022-11-12T18:02:00.069Z,8.40
2022-11-12T18:07:20.777Z,8.10
2022-11-12T18:12:46.984Z,7.13
2022-11-12T18:18:08.096Z,7.60
2022-11-12T18:23:29.312Z,6.90
2022-11-12T18:29:00.598Z,6.90
2022-11-12T18:34:24.053Z,7.00
2022-11-12T18:39:45.459Z,7.00
2022-11-12T18:45:07.342Z,6.80
2022-11-12T18:50:28.341Z,8.13
2022-11-12T18:55:49.236Z,8.00
2022-11-12T19:01:16.858Z,8.90
2022-11-12T19:06:38.280Z,9.60
2022-11-12T19:11:59.255Z,10.00
2022-11-12T19:17:20.101Z,7.40
2022-11-12T19:22:41.275Z,10.40
2022-11-12T19:28:02.348Z,10.30
2022-11-12T19:33:23.941Z,9.47
2022-11-12T19:38:45.148Z,9.20
2022-11-12T19:44:06.391Z,10.13
2022-11-12T19:49:27.487Z,6.87
2022-11-12T19:54:48.235Z,8.07
2022-11-12T20:00:10.847Z,7.80
2022-11-12T20:05:31.982Z,7.93
2022-11-12T20:10:55.813Z,7.90
2022-11-12T20:16:23.843Z,8.30
2022-11-12T20:21:46.319Z,7.10
2022-11-12T20:27:07.957Z,7.40
2022-11-12T20:32:29.097Z,7.33
2022-11-12T20:37:50.199Z,6.00
2022-11-12T20:43:11.362Z,6.73
2022-11-12T20:48:32.442Z,7.70
2022-11-12T20:53:59.405Z,7.90
2022-11-12T20:59:21.021Z,7.67
2022-11-12T21:04:41.891Z,7.40
2022-11-12T21:10:03.380Z,7.33
2022-11-12T21:15:24.450Z,8.37
2022-11-12T21:20:46.614Z,7.80
2022-11-12T21:26:16.011Z,7.53
2022-11-12T21:31:37.339Z,6.53
2022-11-12T21:36:59.177Z,7.17
2022-11-12T21:42:20.059Z,8.03
2022-11-12T21:47:40.863Z,7.97
2022-11-12T21:53:01.791Z,8.77
2022-11-12T21:58:22.874Z,6.80
2022-11-12T22:03:48.503Z,6.60
2022-11-12T22:09:09.354Z,7.17
2022-11-12T22:14:30.165Z,8.10
2022-11-12T22:19:50.869Z,8.83
2022-11-12T22:25:11.930Z,8.30
2022-11-12T22:30:33.022Z,8.70
2022-11-12T22:35:54.049Z,9.67
2022-11-12T22:41:18.200Z,9.20
2022-11-12T22:46:39.175Z,8.87
2022-11-12T22:52:00.299Z,8.60
2022-11-12T22:57:21.237Z,9.23
2022-11-12T23:02:47.345Z,9.43
2022-11-12T23:08:08.917Z,8.80
2022-11-12T23:13:29.922Z,7.57
2022-11-12T23:18:52.622Z,6.40
2022-11-12T23:24:13.564Z,6.67
2022-11-12T23:29:34.737Z,7.23
2022-11-12T23:34:55.913Z,5.97
2022-11-12T23:40:17.272Z,6.00
2022-11-12T23:45:38.438Z,6.70
2022-11-12T23:51:08.176Z,5.77
2022-11-12T23:56:29.529Z,5.90
